Time;durP1;ratioP1;P1;durP2;ratioP2;P2;SDS_P1;SDS_P2;PMS_P1;PMS_P2;Temp;Humidity;BMP_temperature;BMP_pressure;BME280_temperature;BME280_humidity;BME280_pressure;Samples;Min_cycle;Max_cycle;Signal;HPM_P1;HPM_P2
2023/03/18 00:02:00;;;;;;;9.25;4.13;;;;;;;;;;4953619;29;20214;-65
2023/03/18 00:04:25;;;;;;;9.15;4.85;;;;;;;;;;4936461;29;20637;-64
2023/03/18 00:06:51;;;;;;;11.07;4.80;;;;;;;;;;4954307;29;20211;-65
2023/03/18 00:09:16;;;;;;;11.23;4.50;;;;;;;;;;4952582;29;20246;-65
2023/03/18 00:11:41;;;;;;;9.25;4.22;;;;;;;;;;4953758;29;20624;-64
2023/03/18 00:14:07;;;;;;;10.43;4.55;;;;;;;;;;4953446;29;20221;-64
2023/03/18 00:16:33;;;;;;;10.90;4.68;;;;;;;;;;4953490;29;20293;-64
2023/03/18 00:19:00;;;;;;;8.85;4.38;;;;;;;;;;4953537;29;20215;-65
2023/03/18 00:21:26;;;;;;;11.32;5.32;;;;;;;;;;4953609;29;20214;-65
2023/03/18 00:23:55;;;;;;;12.82;5.20;;;;;;;;;;4952936;29;20210;-65
2023/03/18 00:26:20;;;;;;;10.27;4.78;;;;;;;;;;4957939;28;20218;-64
2023/03/18 00:28:45;;;;;;;15.85;6.90;;;;;;;;;;4972821;28;20587;-65
2023/03/18 00:31:12;;;;;;;13.32;7.00;;;;;;;;;;4955930;28;20226;-64
2023/03/18 00:33:38;;;;;;;11.55;5.90;;;;;;;;;;4953312;29;20218;-64
2023/03/18 00:36:05;;;;;;;3.40;1.95;;;;;;;;;;4936110;29;20656;-65
2023/03/18 00:38:31;;;;;;;0.25;0.25;;;;;;;;;;4938874;28;20210;-64
2023/03/18 00:41:10;;;;;;;3.45;1.67;;;;;;;;;;4969651;28;20218;-64
2023/03/18 00:43:44;;;;;;;9.70;4.28;;;;;;;;;;4952426;29;20281;-65
2023/03/18 00:46:10;;;;;;;4.13;2.35;;;;;;;;;;4952885;29;20230;-64
2023/03/18 00:48:36;;;;;;;10.10;4.53;;;;;;;;;;4953082;29;20222;-65
2023/03/18 00:51:01;;;;;;;7.82;4.10;;;;;;;;;;4951239;28;20231;-65
2023/03/18 00:53:26;;;;;;;9.02;4.10;;;;;;;;;;4952897;29;20210;-65
2023/03/18 00:55:51;;;;;;;9.73;4.43;;;;;;;;;;4953067;29;20214;-65
2023/03/18 00:58:17;;;;;;;10.88;4.15;;;;;;;;;;4952126;29;20246;-64
2023/03/18 01:00:43;;;;;;;8.18;4.22;;;;;;;;;;4952718;29;20704;-64
2023/03/18 01:03:08;;;;;;;10.75;4.25;;;;;;;;;;4952690;29;20207;-64
2023/03/18 01:05:34;;;;;;;8.23;3.60;;;;;;;;;;4952187;29;20298;-64
2023/03/18 01:08:00;;;;;;;8.57;4.00;;;;;;;;;;4952837;29;20551;-65
2023/03/18 01:10:26;;;;;;;10.55;4.28;;;;;;;;;;4952154;29;20222;-64
2023/03/18 01:12:52;;;;;;;10.15;4.40;;;;;;;;;;4952447;29;20662;-64
2023/03/18 01:15:18;;;;;;;8.13;3.97;;;;;;;;;;4951935;29;20215;-64
2023/03/18 01:17:44;;;;;;;9.00;3.70;;;;;;;;;;4952918;29;20237;-65
2023/03/18 01:20:10;;;;;;;8.15;3.90;;;;;;;;;;4951688;29;20215;-64
2023/03/18 01:22:36;;;;;;;8.02;3.90;;;;;;;;;;4952632;29;20210;-65
2023/03/18 01:25:02;;;;;;;7.22;4.00;;;;;;;;;;4952004;29;20265;-64
2023/03/18 01:27:27;;;;;;;7.88;3.72;;;;;;;;;;4965999;28;20221;-64
2023/03/18 01:29:52;;;;;;;9.32;4.22;;;;;;;;;;4954155;28;20316;-65
2023/03/18 01:32:17;;;;;;;13.10;4.80;;;;;;;;;;4971350;28;20304;-65
2023/03/18 01:34:43;;;;;;;12.40;4.70;;;;;;;;;;4971256;28;20578;-65
2023/03/18 01:37:08;;;;;;;16.23;4.47;;;;;;;;;;4970990;28;20217;-64
2023/03/18 01:39:34;;;;;;;11.18;4.43;;;;;;;;;;4942892;29;20701;-65
2023/03/18 01:41:59;;;;;;;6.32;3.47;;;;;;;;;;4954480;28;20214;-65
2023/03/18 01:44:26;;;;;;;10.70;3.88;;;;;;;;;;4951836;29;20206;-65
2023/03/18 01:46:51;;;;;;;8.38;3.70;;;;;;;;;;4951861;29;20214;-65
2023/03/18 01:49:18;;;;;;;8.00;3.85;;;;;;;;;;4951852;29;20260;-65
2023/03/18 01:51:45;;;;;;;9.60;4.03;;;;;;;;;;4946656;28;20237;-65
2023/03/18 01:54:11;;;;;;;10.00;4.22;;;;;;;;;;4929763;28;20640;-65
2023/03/18 01:56:37;;;;;;;9.35;4.28;;;;;;;;;;4924954;28;20214;-65
2023/03/18 01:59:02;;;;;;;10.70;4.30;;;;;;;;;;4956451;28;20218;-65
2023/03/18 02:01:29;;;;;;;6.90;2.90;;;;;;;;;;4917723;28;20219;-65
2023/03/18 02:03:55;;;;;;;5.78;3.25;;;;;;;;;;4934999;28;20277;-65
2023/03/18 02:06:20;;;;;;;10.30;3.75;;;;;;;;;;4957744;28;20798;-64
2023/03/18 02:08:46;;;;;;;8.75;4.45;;;;;;;;;;4952177;28;20210;-65
2023/03/18 02:11:12;;;;;;;9.60;4.50;;;;;;;;;;4941509;28;20789;-65
2023/03/18 02:13:38;;;;;;;8.38;2.78;;;;;;;;;;4925247;28;20219;-65
2023/03/18 02:16:05;;;;;;;6.50;2.92;;;;;;;;;;4941507;28;20256;-65
2023/03/18 02:18:49;;;;;;;7.18;3.53;;;;;;;;;;4943783;28;20672;-65
2023/03/18 02:21:17;;;;;;;7.65;3.40;;;;;;;;;;4940190;28;20238;-65
2023/03/18 02:23:48;;;;;;;8.80;3.40;;;;;;;;;;4920435;28;20221;-65
2023/03/18 02:26:19;;;;;;;8.00;3.50;;;;;;;;;;4931582;28;20213;-65
2023/03/18 02:28:45;;;;;;;10.85;3.80;;;;;;;;;;4956994;28;20217;-65
2023/03/18 02:31:10;;;;;;;6.85;3.25;;;;;;;;;;4944477;28;20246;-65
2023/03/18 02:33:37;;;;;;;9.40;3.47;;;;;;;;;;4925246;28;20203;-66
2023/03/18 02:36:04;;;;;;;8.57;3.63;;;;;;;;;;4941538;28;20219;-64
2023/03/18 02:38:30;;;;;;;8.13;3.72;;;;;;;;;;4942448;28;21391;-65
2023/03/18 02:40:55;;;;;;;7.97;3.05;;;;;;;;;;4942338;28;20690;-65
2023/03/18 02:43:23;;;;;;;6.13;2.38;;;;;;;;;;4939600;28;20568;-65
2023/03/18 02:45:50;;;;;;;8.45;3.65;;;;;;;;;;4935048;28;20215;-65
2023/03/18 02:48:16;;;;;;;7.18;3.70;;;;;;;;;;4917141;28;20250;-65
2023/03/18 02:50:41;;;;;;;9.57;4.13;;;;;;;;;;4918478;28;20222;-65
2023/03/18 02:53:07;;;;;;;9.00;4.07;;;;;;;;;;4966132;28;20570;-65
2023/03/18 02:55:32;;;;;;;11.73;4.57;;;;;;;;;;4951566;28;20266;-65
2023/03/18 02:57:57;;;;;;;7.47;3.13;;;;;;;;;;4951022;29;20206;-65
2023/03/18 03:00:23;;;;;;;7.38;2.88;;;;;;;;;;4963375;28;20567;-64
2023/03/18 03:02:48;;;;;;;9.52;3.75;;;;;;;;;;4970902;28;20218;-64
2023/03/18 03:05:14;;;;;;;10.50;3.05;;;;;;;;;;4970017;28;20210;-64
2023/03/18 03:07:39;;;;;;;7.32;3.83;;;;;;;;;;4970763;28;20214;-64
2023/03/18 03:10:05;;;;;;;6.72;2.90;;;;;;;;;;4970474;28;20698;-64
2023/03/18 03:12:30;;;;;;;7.90;3.42;;;;;;;;;;4970137;28;20316;-65
2023/03/18 03:14:56;;;;;;;6.60;3.28;;;;;;;;;;4973857;28;20218;-65
2023/03/18 03:17:21;;;;;;;6.90;2.60;;;;;;;;;;4973708;28;20209;-64
2023/03/18 03:19:46;;;;;;;8.15;2.50;;;;;;;;;;4973790;28;20220;-65
2023/03/18 03:22:12;;;;;;;4.65;2.15;;;;;;;;;;4973358;28;20220;-64
2023/03/18 03:24:37;;;;;;;8.13;3.60;;;;;;;;;;4974205;28;20210;-65
2023/03/18 03:27:03;;;;;;;13.15;6.78;;;;;;;;;;4972369;28;20214;-63
2023/03/18 03:29:29;;;;;;;8.57;5.10;;;;;;;;;;4946361;28;20239;-63
2023/03/18 03:31:54;;;;;;;13.30;5.72;;;;;;;;;;4945119;28;20230;-64
2023/03/18 03:34:19;;;;;;;9.23;3.67;;;;;;;;;;4943962;28;20585;-64
2023/03/18 03:36:45;;;;;;;9.40;3.97;;;;;;;;;;4945180;28;20210;-64
2023/03/18 03:39:11;;;;;;;9.98;5.60;;;;;;;;;;4944648;28;20218;-64
2023/03/18 03:41:36;;;;;;;10.77;4.18;;;;;;;;;;4942486;28;20206;-64
2023/03/18 03:44:01;;;;;;;9.80;4.30;;;;;;;;;;4936836;28;20278;-63
2023/03/18 03:46:27;;;;;;;12.35;6.18;;;;;;;;;;4937054;28;20214;-64
2023/03/18 03:48:52;;;;;;;12.00;5.97;;;;;;;;;;4939020;28;20565;-64
2023/03/18 03:51:17;;;;;;;11.85;3.85;;;;;;;;;;4944430;28;20242;-64
2023/03/18 03:53:44;;;;;;;12.07;4.97;;;;;;;;;;4944225;28;20206;-64
2023/03/18 03:56:10;;;;;;;11.73;5.57;;;;;;;;;;4944150;28;20762;-63
2023/03/18 03:58:35;;;;;;;13.90;6.38;;;;;;;;;;4944658;28;20298;-64
2023/03/18 04:01:01;;;;;;;12.57;6.35;;;;;;;;;;4943612;28;20217;-62
2023/03/18 04:03:27;;;;;;;13.93;6.65;;;;;;;;;;4963148;28;20619;-63
2023/03/18 04:05:52;;;;;;;10.35;5.88;;;;;;;;;;4956770;28;20233;-64
2023/03/18 04:08:18;;;;;;;9.20;5.63;;;;;;;;;;4955227;28;20221;-63
2023/03/18 04:10:43;;;;;;;13.60;6.80;;;;;;;;;;4955758;28;20336;-64
2023/03/18 04:13:09;;;;;;;11.60;6.60;;;;;;;;;;4962155;28;20226;-63
2023/03/18 04:15:34;;;;;;;13.15;6.53;;;;;;;;;;4962568;28;20209;-64
2023/03/18 04:18:05;;;;;;;14.68;6.82;;;;;;;;;;4963079;28;20221;-64
2023/03/18 04:20:31;;;;;;;12.13;6.80;;;;;;;;;;4962610;28;20669;-64
2023/03/18 04:22:56;;;;;;;14.82;7.47;;;;;;;;;;4962698;28;20221;-64
2023/03/18 04:25:21;;;;;;;13.40;6.72;;;;;;;;;;4962089;28;20206;-64
2023/03/18 04:27:46;;;;;;;15.82;7.53;;;;;;;;;;4942726;28;20264;-64
2023/03/18 04:30:12;;;;;;;13.05;6.68;;;;;;;;;;4945987;28;20725;-64
2023/03/18 04:32:37;;;;;;;14.15;7.75;;;;;;;;;;4936772;28;20234;-64
2023/03/18 04:35:03;;;;;;;12.65;7.68;;;;;;;;;;4940561;28;20207;-63
2023/03/18 04:37:28;;;;;;;16.80;7.75;;;;;;;;;;4943843;28;20576;-64
2023/03/18 04:39:53;;;;;;;13.13;7.38;;;;;;;;;;4943521;28;20222;-64
2023/03/18 04:42:18;;;;;;;16.13;8.00;;;;;;;;;;4943947;28;20262;-63
2023/03/18 04:44:44;;;;;;;16.65;8.00;;;;;;;;;;4943202;28;20279;-64
2023/03/18 04:47:09;;;;;;;12.93;7.63;;;;;;;;;;4942773;28;20273;-65
2023/03/18 04:49:35;;;;;;;16.65;8.50;;;;;;;;;;4941140;28;20587;-63
2023/03/18 04:52:01;;;;;;;18.65;9.73;;;;;;;;;;4935620;28;20220;-64
2023/03/18 04:54:26;;;;;;;18.98;8.90;;;;;;;;;;4937085;28;20213;-63
2023/03/18 04:56:51;;;;;;;24.00;12.98;;;;;;;;;;4956453;28;20221;-63
2023/03/18 04:59:17;;;;;;;22.20;14.68;;;;;;;;;;4949644;28;20810;-64
2023/03/18 05:01:43;;;;;;;18.48;11.60;;;;;;;;;;4943264;28;20214;-64
2023/03/18 05:04:09;;;;;;;24.88;15.30;;;;;;;;;;4931111;28;20690;-63
2023/03/18 05:06:34;;;;;;;16.75;10.35;;;;;;;;;;4962458;28;20608;-64
2023/03/18 05:08:59;;;;;;;24.80;17.38;;;;;;;;;;4962288;28;20753;-64
2023/03/18 05:11:25;;;;;;;26.80;17.27;;;;;;;;;;4961588;28;20221;-64
2023/03/18 05:13:51;;;;;;;21.63;15.15;;;;;;;;;;4955165;28;20444;-64
2023/03/18 05:16:16;;;;;;;23.80;16.13;;;;;;;;;;4953858;28;20302;-63
2023/03/18 05:18:41;;;;;;;21.67;15.05;;;;;;;;;;4954402;28;20210;-63
2023/03/18 05:21:07;;;;;;;23.60;16.75;;;;;;;;;;4960971;28;20701;-63
2023/03/18 05:23:33;;;;;;;20.42;14.85;;;;;;;;;;4962298;28;20843;-64
2023/03/18 05:25:58;;;;;;;20.17;15.43;;;;;;;;;;4959311;28;20575;-63
2023/03/18 05:28:24;;;;;;;24.27;17.17;;;;;;;;;;4942654;28;20225;-63
2023/03/18 05:30:49;;;;;;;25.95;16.73;;;;;;;;;;4942879;28;20262;-64
2023/03/18 05:33:14;;;;;;;26.05;17.35;;;;;;;;;;4960737;28;20694;-63
2023/03/18 05:35:40;;;;;;;25.90;17.67;;;;;;;;;;4956738;28;20305;-64
2023/03/18 05:38:06;;;;;;;27.52;17.83;;;;;;;;;;4954077;28;20596;-64
2023/03/18 05:40:31;;;;;;;24.80;17.95;;;;;;;;;;4934600;28;20214;-63
2023/03/18 05:42:57;;;;;;;24.42;17.48;;;;;;;;;;4940962;28;20706;-64
2023/03/18 05:45:23;;;;;;;25.38;17.63;;;;;;;;;;4942041;28;20218;-63
2023/03/18 05:47:48;;;;;;;20.15;15.57;;;;;;;;;;4961006;28;20305;-63
2023/03/18 05:50:13;;;;;;;22.23;16.80;;;;;;;;;;4960876;28;20268;-63
2023/03/18 05:52:39;;;;;;;26.08;17.13;;;;;;;;;;4944368;28;20563;-63
2023/03/18 05:55:04;;;;;;;25.90;17.17;;;;;;;;;;4960800;28;20214;-63
2023/03/18 05:57:29;;;;;;;24.38;16.52;;;;;;;;;;4959112;28;20269;-63
2023/03/18 05:59:55;;;;;;;25.15;17.90;;;;;;;;;;4945904;28;20620;-63
2023/03/18 06:02:20;;;;;;;28.13;20.15;;;;;;;;;;4933440;28;20249;-63
2023/03/18 06:04:46;;;;;;;31.73;20.23;;;;;;;;;;4937807;28;20705;-64
2023/03/18 06:07:12;;;;;;;29.02;20.02;;;;;;;;;;4941263;28;20222;-63
2023/03/18 06:09:37;;;;;;;26.67;19.10;;;;;;;;;;4942642;28;20227;-64
2023/03/18 06:12:02;;;;;;;27.13;20.05;;;;;;;;;;4941924;28;20222;-63
2023/03/18 06:14:28;;;;;;;23.63;16.45;;;;;;;;;;4948340;28;21409;-64
2023/03/18 06:16:55;;;;;;;25.13;17.08;;;;;;;;;;4960843;28;20221;-64
2023/03/18 06:19:20;;;;;;;24.38;16.08;;;;;;;;;;4960538;28;20213;-64
2023/03/18 06:21:46;;;;;;;32.15;18.58;;;;;;;;;;4954269;28;20236;-64
2023/03/18 06:24:13;;;;;;;22.00;16.40;;;;;;;;;;4953194;28;20225;-64
2023/03/18 06:26:38;;;;;;;24.98;17.02;;;;;;;;;;4946637;28;20221;-64
2023/03/18 06:29:04;;;;;;;26.75;19.13;;;;;;;;;;4945632;28;20219;-63
2023/03/18 06:31:29;;;;;;;26.00;18.08;;;;;;;;;;4941577;28;20223;-65
2023/03/18 06:33:55;;;;;;;24.15;17.55;;;;;;;;;;4941328;28;20921;-65
2023/03/18 06:36:20;;;;;;;28.92;18.23;;;;;;;;;;4908215;28;20224;-65
2023/03/18 06:38:45;;;;;;;23.90;17.52;;;;;;;;;;4942513;28;20211;-65
2023/03/18 06:41:11;;;;;;;26.67;19.20;;;;;;;;;;4949236;28;21068;-65
2023/03/18 06:43:37;;;;;;;24.30;16.98;;;;;;;;;;4956530;28;20222;-65
2023/03/18 06:46:03;;;;;;;24.02;16.95;;;;;;;;;;4959881;28;20206;-64
2023/03/18 06:48:28;;;;;;;24.48;16.13;;;;;;;;;;4946004;28;20202;-66
2023/03/18 06:50:54;;;;;;;23.83;16.05;;;;;;;;;;4954483;28;20697;-66
2023/03/18 06:53:19;;;;;;;23.10;16.52;;;;;;;;;;4973921;28;20712;-65
2023/03/18 06:55:44;;;;;;;24.13;16.80;;;;;;;;;;4974593;28;20240;-66
2023/03/18 06:58:09;;;;;;;25.83;16.60;;;;;;;;;;4973334;28;20206;-65
2023/03/18 07:00:35;;;;;;;24.88;17.38;;;;;;;;;;4974573;28;20206;-63
2023/03/18 07:03:00;;;;;;;23.40;15.65;;;;;;;;;;4974345;28;20289;-65
2023/03/18 07:05:25;;;;;;;27.15;18.30;;;;;;;;;;4973359;28;20739;-66
2023/03/18 07:07:51;;;;;;;22.52;15.60;;;;;;;;;;4974413;28;20206;-66
2023/03/18 07:10:17;;;;;;;23.52;16.55;;;;;;;;;;4973988;28;20218;-66
2023/03/18 07:12:43;;;;;;;21.80;16.55;;;;;;;;;;4973558;28;20230;-65
2023/03/18 07:15:10;;;;;;;22.17;16.42;;;;;;;;;;4974015;28;20244;-64
2023/03/18 07:17:36;;;;;;;23.75;17.02;;;;;;;;;;4973598;28;20221;-65
2023/03/18 07:20:04;;;;;;;24.45;16.20;;;;;;;;;;4973634;28;20273;-64
2023/03/18 07:22:29;;;;;;;20.98;16.30;;;;;;;;;;4974099;28;20237;-65
2023/03/18 07:24:54;;;;;;;27.00;18.02;;;;;;;;;;4955926;28;20233;-65
2023/03/18 07:27:20;;;;;;;24.83;17.48;;;;;;;;;;4961452;28;20258;-64
2023/03/18 07:29:46;;;;;;;27.65;17.75;;;;;;;;;;4958796;28;20250;-64
2023/03/18 07:32:11;;;;;;;25.50;17.42;;;;;;;;;;4961650;28;20709;-64
2023/03/18 07:34:36;;;;;;;28.08;19.00;;;;;;;;;;4957320;28;20222;-65
2023/03/18 07:37:02;;;;;;;21.77;16.75;;;;;;;;;;4964571;28;20712;-65
2023/03/18 07:39:28;;;;;;;22.48;15.77;;;;;;;;;;4962273;28;20570;-65
2023/03/18 07:41:53;;;;;;;22.63;16.13;;;;;;;;;;4958339;28;20198;-64
2023/03/18 07:44:18;;;;;;;22.20;16.02;;;;;;;;;;4954383;28;20226;-64
2023/03/18 07:46:44;;;;;;;23.65;15.68;;;;;;;;;;4964572;28;20840;-65
2023/03/18 07:49:09;;;;;;;21.17;15.38;;;;;;;;;;4953308;29;20221;-64
2023/03/18 07:51:35;;;;;;;22.58;16.27;;;;;;;;;;4963820;28;20539;-65
2023/03/18 07:54:00;;;;;;;21.48;15.95;;;;;;;;;;4962478;28;20214;-65
2023/03/18 07:56:26;;;;;;;25.25;16.33;;;;;;;;;;4970458;28;20214;-65
2023/03/18 07:58:51;;;;;;;20.90;15.98;;;;;;;;;;4973016;28;20209;-65
2023/03/18 08:01:18;;;;;;;25.23;16.40;;;;;;;;;;4972200;28;20221;-65
2023/03/18 08:03:43;;;;;;;24.27;16.17;;;;;;;;;;4955828;28;20578;-64
2023/03/18 08:06:10;;;;;;;22.30;16.38;;;;;;;;;;4972766;28;20229;-64
2023/03/18 08:08:35;;;;;;;22.13;15.70;;;;;;;;;;4972487;28;20240;-65
2023/03/18 08:11:01;;;;;;;20.52;16.27;;;;;;;;;;4972848;28;20304;-64
2023/03/18 08:13:27;;;;;;;20.50;15.88;;;;;;;;;;4973330;28;20218;-65
2023/03/18 08:15:53;;;;;;;22.60;15.55;;;;;;;;;;4972585;28;20214;-65
2023/03/18 08:18:18;;;;;;;20.70;15.48;;;;;;;;;;4955082;28;20600;-65
2023/03/18 08:20:44;;;;;;;19.88;14.02;;;;;;;;;;4972271;28;20206;-65
2023/03/18 08:23:10;;;;;;;19.63;14.60;;;;;;;;;;4972399;28;20222;-64
2023/03/18 08:25:35;;;;;;;20.30;14.00;;;;;;;;;;4972979;28;20280;-65
2023/03/18 08:28:01;;;;;;;20.92;14.20;;;;;;;;;;4953697;28;20230;-64
2023/03/18 08:30:27;;;;;;;19.77;14.68;;;;;;;;;;4953062;29;20261;-65
2023/03/18 08:32:54;;;;;;;19.27;14.52;;;;;;;;;;4953642;28;20215;-64
2023/03/18 08:35:19;;;;;;;17.35;13.57;;;;;;;;;;4963603;28;20281;-64
2023/03/18 08:37:45;;;;;;;17.13;13.10;;;;;;;;;;4962083;28;20643;-64
2023/03/18 08:40:12;;;;;;;17.30;12.95;;;;;;;;;;4969425;28;20748;-63
2023/03/18 08:42:37;;;;;;;17.15;12.55;;;;;;;;;;4965628;28;20265;-62
2023/03/18 08:45:03;;;;;;;17.97;14.03;;;;;;;;;;4969228;28;20430;-64
2023/03/18 08:47:29;;;;;;;18.40;13.10;;;;;;;;;;4972741;28;20530;-64
2023/03/18 08:49:55;;;;;;;17.10;13.73;;;;;;;;;;4971109;28;20434;-64
2023/03/18 08:52:21;;;;;;;18.15;12.07;;;;;;;;;;4971571;28;20256;-63
2023/03/18 08:54:46;;;;;;;16.08;12.23;;;;;;;;;;4969581;28;20569;-63
2023/03/18 08:57:12;;;;;;;15.73;12.98;;;;;;;;;;4968922;28;20206;-64
2023/03/18 08:59:37;;;;;;;14.80;11.63;;;;;;;;;;4935805;28;20233;-64
2023/03/18 09:02:03;;;;;;;14.77;11.77;;;;;;;;;;4958790;28;20213;-63
2023/03/18 09:04:29;;;;;;;15.20;11.38;;;;;;;;;;4958107;28;20558;-62
2023/03/18 09:06:54;;;;;;;16.08;11.77;;;;;;;;;;4954442;28;20211;-64
2023/03/18 09:09:20;;;;;;;15.57;11.35;;;;;;;;;;4952432;29;20729;-64
2023/03/18 09:11:46;;;;;;;14.25;11.43;;;;;;;;;;4956715;28;20658;-64
2023/03/18 09:14:12;;;;;;;13.98;11.00;;;;;;;;;;4954488;28;20245;-64
2023/03/18 09:16:37;;;;;;;15.32;11.35;;;;;;;;;;4935611;29;20682;-64
2023/03/18 09:19:02;;;;;;;14.82;10.70;;;;;;;;;;4951713;29;20238;-64
2023/03/18 09:21:28;;;;;;;12.18;9.63;;;;;;;;;;4952255;29;20670;-64
2023/03/18 09:23:53;;;;;;;12.50;9.55;;;;;;;;;;4952875;29;20238;-64
2023/03/18 09:26:18;;;;;;;11.80;8.63;;;;;;;;;;4956118;28;20304;-64
2023/03/18 09:28:43;;;;;;;11.60;8.85;;;;;;;;;;4971899;28;20217;-64
2023/03/18 09:31:09;;;;;;;12.07;8.95;;;;;;;;;;4955007;28;20245;-64
2023/03/18 09:33:35;;;;;;;12.38;9.25;;;;;;;;;;4952593;29;20234;-64
2023/03/18 09:36:01;;;;;;;10.85;8.32;;;;;;;;;;4951943;29;20221;-64
2023/03/18 09:38:27;;;;;;;9.55;7.55;;;;;;;;;;4954678;28;20229;-64
2023/03/18 09:41:04;;;;;;;13.55;8.85;;;;;;;;;;4971308;28;20565;-64
2023/03/18 09:43:48;;;;;;;10.43;7.93;;;;;;;;;;4954151;28;20213;-64
2023/03/18 09:46:20;;;;;;;10.13;7.70;;;;;;;;;;4970494;28;20220;-64
2023/03/18 09:48:55;;;;;;;10.70;7.50;;;;;;;;;;4971463;28;20575;-64
2023/03/18 09:51:27;;;;;;;10.30;7.07;;;;;;;;;;4953532;28;20744;-64
2023/03/18 09:53:57;;;;;;;9.25;7.07;;;;;;;;;;4961864;28;20210;-64
2023/03/18 09:56:25;;;;;;;8.25;6.55;;;;;;;;;;4934618;28;20601;-64
2023/03/18 09:58:55;;;;;;;10.45;6.95;;;;;;;;;;4935266;29;20218;-64
2023/03/18 10:01:21;;;;;;;9.18;7.13;;;;;;;;;;4950806;28;20245;-64
2023/03/18 10:03:48;;;;;;;9.68;7.07;;;;;;;;;;4935205;29;20679;-64
2023/03/18 10:06:15;;;;;;;8.63;6.90;;;;;;;;;;4951020;28;20210;-64
2023/03/18 10:08:43;;;;;;;10.32;6.70;;;;;;;;;;4952010;28;20206;-64
2023/03/18 10:11:22;;;;;;;10.40;6.45;;;;;;;;;;4934518;28;20309;-64
2023/03/18 10:13:52;;;;;;;8.93;5.97;;;;;;;;;;4951811;28;20221;-64
2023/03/18 10:16:20;;;;;;;12.02;6.80;;;;;;;;;;4934352;28;20249;-64
2023/03/18 10:18:46;;;;;;;8.55;7.07;;;;;;;;;;4934875;29;20553;-64
2023/03/18 10:21:26;;;;;;;9.23;5.97;;;;;;;;;;4950953;28;20313;-64
2023/03/18 10:24:01;;;;;;;9.27;6.70;;;;;;;;;;4938188;29;20580;-64
2023/03/18 10:26:31;;;;;;;9.98;6.90;;;;;;;;;;4938906;28;20661;-65
2023/03/18 10:29:00;;;;;;;10.57;6.78;;;;;;;;;;4956173;28;20236;-64
2023/03/18 10:31:28;;;;;;;4.75;3.65;;;;;;;;;;4937795;29;20223;-64
2023/03/18 10:33:58;;;;;;;16.25;12.90;;;;;;;;;;4955729;29;20304;-64
2023/03/18 10:36:30;;;;;;;12.23;8.00;;;;;;;;;;4962216;28;20213;-64
2023/03/18 10:38:56;;;;;;;10.57;6.80;;;;;;;;;;4964528;28;20293;-63
2023/03/18 10:41:23;;;;;;;9.77;7.28;;;;;;;;;;4971356;28;20225;-64
2023/03/18 10:43:48;;;;;;;8.82;6.70;;;;;;;;;;4974741;28;20288;-63
2023/03/18 10:46:14;;;;;;;10.15;7.18;;;;;;;;;;4974521;28;20210;-63
2023/03/18 10:48:45;;;;;;;9.23;6.60;;;;;;;;;;4974255;28;20206;-64
2023/03/18 10:51:13;;;;;;;9.25;6.50;;;;;;;;;;4958377;28;20624;-63
2023/03/18 10:53:41;;;;;;;9.15;6.40;;;;;;;;;;4945050;28;20244;-63
2023/03/18 10:56:07;;;;;;;10.95;6.85;;;;;;;;;;4954063;28;20217;-63
2023/03/18 10:58:32;;;;;;;8.73;6.57;;;;;;;;;;4974486;28;20237;-63
2023/03/18 11:00:58;;;;;;;8.93;6.53;;;;;;;;;;4974505;28;20248;-63
2023/03/18 11:03:25;;;;;;;10.93;6.57;;;;;;;;;;4973549;28;20229;-63
2023/03/18 11:05:50;;;;;;;8.43;5.72;;;;;;;;;;4956730;28;20293;-63
2023/03/18 11:08:27;;;;;;;9.48;5.85;;;;;;;;;;4973850;28;20321;-63
2023/03/18 11:10:53;;;;;;;7.30;6.05;;;;;;;;;;4973587;28;20320;-63
2023/03/18 11:13:18;;;;;;;9.40;5.82;;;;;;;;;;4973833;28;20245;-63
2023/03/18 11:15:45;;;;;;;8.70;6.20;;;;;;;;;;4974302;28;20575;-63
2023/03/18 11:18:13;;;;;;;6.07;3.60;;;;;;;;;;4955703;28;20648;-63
2023/03/18 11:20:46;;;;;;;3.35;2.10;;;;;;;;;;4956865;28;20223;-63
2023/03/18 11:23:16;;;;;;;6.55;2.90;;;;;;;;;;4973577;28;20206;-63
2023/03/18 11:25:44;;;;;;;7.32;4.88;;;;;;;;;;4973413;28;20729;-63
2023/03/18 11:28:17;;;;;;;6.80;5.00;;;;;;;;;;4954545;29;20210;-63
2023/03/18 11:30:44;;;;;;;8.73;5.18;;;;;;;;;;4965849;28;20234;-63
2023/03/18 11:33:10;;;;;;;9.82;5.25;;;;;;;;;;4973119;28;20304;-63
2023/03/18 11:35:42;;;;;;;6.55;5.10;;;;;;;;;;4973270;28;20296;-63
2023/03/18 11:38:18;;;;;;;6.60;4.90;;;;;;;;;;4972732;28;20221;-63
2023/03/18 11:40:45;;;;;;;5.85;3.40;;;;;;;;;;4954257;29;20241;-63
2023/03/18 11:43:15;;;;;;;3.92;2.22;;;;;;;;;;4953973;29;20746;-63
2023/03/18 11:45:43;;;;;;;6.40;4.50;;;;;;;;;;4953888;29;20626;-63
2023/03/18 11:48:13;;;;;;;6.35;4.43;;;;;;;;;;4953792;29;20266;-63
2023/03/18 11:50:40;;;;;;;6.03;4.30;;;;;;;;;;4954152;29;20219;-63
2023/03/18 11:53:16;;;;;;;4.55;3.45;;;;;;;;;;4938520;28;20214;-63
2023/03/18 11:55:47;;;;;;;1.13;0.98;;;;;;;;;;4954016;29;20222;-63
2023/03/18 11:58:15;;;;;;;6.20;5.57;;;;;;;;;;4953835;29;20215;-63
2023/03/18 12:00:41;;;;;;;7.35;3.85;;;;;;;;;;4953363;29;20564;-63
2023/03/18 12:03:34;;;;;;;7.53;4.07;;;;;;;;;;4953687;29;20235;-63
2023/03/18 12:05:59;;;;;;;6.28;3.80;;;;;;;;;;4952963;29;20533;-63
2023/03/18 12:08:33;;;;;;;5.30;3.03;;;;;;;;;;4951083;28;20261;-63
2023/03/18 12:11:04;;;;;;;3.95;2.75;;;;;;;;;;4953798;29;20230;-63
2023/03/18 12:13:33;;;;;;;3.00;2.20;;;;;;;;;;4953233;29;20210;-63
2023/03/18 12:16:02;;;;;;;3.97;2.38;;;;;;;;;;4936538;29;20265;-63
2023/03/18 12:18:38;;;;;;;5.38;3.00;;;;;;;;;;4953559;29;20805;-63
2023/03/18 12:21:12;;;;;;;5.30;2.67;;;;;;;;;;4935170;29;20297;-63
2023/03/18 12:23:41;;;;;;;4.75;2.78;;;;;;;;;;4936572;29;20528;-63
2023/03/18 12:26:10;;;;;;;3.53;2.20;;;;;;;;;;4935953;29;20199;-63
2023/03/18 12:28:41;;;;;;;0.90;0.40;;;;;;;;;;4951782;29;20207;-63
2023/03/18 12:31:12;;;;;;;7.18;3.67;;;;;;;;;;4951704;29;20226;-63
2023/03/18 12:33:45;;;;;;;5.43;3.58;;;;;;;;;;4953479;29;20211;-63
2023/03/18 12:36:13;;;;;;;5.35;3.35;;;;;;;;;;4952371;29;20582;-63
2023/03/18 12:38:47;;;;;;;5.63;3.28;;;;;;;;;;4957638;28;20248;-63
2023/03/18 12:41:26;;;;;;;5.35;3.67;;;;;;;;;;4971658;28;20296;-63
2023/03/18 12:44:10;;;;;;;6.97;3.72;;;;;;;;;;4955649;28;20292;-63
2023/03/18 12:46:35;;;;;;;5.32;3.10;;;;;;;;;;4972429;28;20252;-63
2023/03/18 12:49:13;;;;;;;6.38;3.50;;;;;;;;;;4971535;28;20429;-63
2023/03/18 12:51:42;;;;;;;5.30;3.30;;;;;;;;;;4972338;28;20580;-63
2023/03/18 12:54:09;;;;;;;5.10;2.70;;;;;;;;;;4943771;28;20215;-63
2023/03/18 12:56:35;;;;;;;1.17;1.00;;;;;;;;;;4935427;29;20207;-63
2023/03/18 12:59:05;;;;;;;5.45;2.75;;;;;;;;;;4935419;28;20225;-63
2023/03/18 13:01:32;;;;;;;4.63;2.58;;;;;;;;;;4953191;28;20261;-63
2023/03/18 13:04:00;;;;;;;5.32;2.38;;;;;;;;;;4952256;28;20608;-63
2023/03/18 13:06:26;;;;;;;5.38;2.55;;;;;;;;;;4919934;29;20211;-63
2023/03/18 13:08:54;;;;;;;6.72;2.83;;;;;;;;;;4953033;28;20288;-63
2023/03/18 13:11:25;;;;;;;5.32;2.70;;;;;;;;;;4951332;28;20230;-63
2023/03/18 13:13:53;;;;;;;6.30;2.70;;;;;;;;;;4952985;28;20262;-63
2023/03/18 13:16:18;;;;;;;5.07;2.50;;;;;;;;;;4951803;28;20214;-63
2023/03/18 13:18:44;;;;;;;5.35;2.45;;;;;;;;;;4935632;29;20222;-63
2023/03/18 13:21:17;;;;;;;4.25;2.47;;;;;;;;;;4934979;28;20207;-63
2023/03/18 13:23:43;;;;;;;4.80;2.53;;;;;;;;;;4935227;29;20222;-63
2023/03/18 13:26:14;;;;;;;5.90;2.60;;;;;;;;;;4951774;28;20598;-63
2023/03/18 13:28:52;;;;;;;5.93;2.55;;;;;;;;;;4952716;29;20241;-63
2023/03/18 13:31:21;;;;;;;6.30;2.90;;;;;;;;;;4966396;28;20263;-63
2023/03/18 13:33:46;;;;;;;5.82;3.03;;;;;;;;;;4940969;28;21070;-63
2023/03/18 13:36:20;;;;;;;4.30;2.70;;;;;;;;;;4957217;28;20305;-63
2023/03/18 13:38:48;;;;;;;4.82;2.70;;;;;;;;;;4953763;28;20239;-63
2023/03/18 13:41:27;;;;;;;7.40;2.78;;;;;;;;;;4927412;28;20245;-63
2023/03/18 13:43:52;;;;;;;4.57;2.72;;;;;;;;;;4947012;28;20254;-63
2023/03/18 13:46:18;;;;;;;5.05;2.80;;;;;;;;;;4928236;28;20250;-63
2023/03/18 13:48:44;;;;;;;5.85;3.15;;;;;;;;;;4929522;28;20214;-63
2023/03/18 13:51:18;;;;;;;5.85;3.33;;;;;;;;;;4961860;28;20230;-63
2023/03/18 13:53:43;;;;;;;4.65;2.60;;;;;;;;;;4958326;28;20299;-63
2023/03/18 13:56:27;;;;;;;6.60;3.45;;;;;;;;;;4923409;28;20255;-63
2023/03/18 13:58:52;;;;;;;5.32;3.45;;;;;;;;;;4938733;28;20221;-63
2023/03/18 14:01:27;;;;;;;6.10;3.50;;;;;;;;;;4922473;28;20214;-63
2023/03/18 14:03:53;;;;;;;9.13;4.00;;;;;;;;;;4944843;28;20238;-63
2023/03/18 14:06:20;;;;;;;6.25;3.90;;;;;;;;;;4946145;28;20309;-63
2023/03/18 14:08:48;;;;;;;8.20;4.32;;;;;;;;;;4965322;28;20214;-63
2023/03/18 14:11:15;;;;;;;7.28;4.43;;;;;;;;;;4964357;28;20238;-63
2023/03/18 14:13:41;;;;;;;7.75;4.30;;;;;;;;;;4964610;28;20296;-63
2023/03/18 14:16:09;;;;;;;8.35;4.32;;;;;;;;;;4964677;28;20229;-63
2023/03/18 14:18:36;;;;;;;7.45;4.47;;;;;;;;;;4960411;28;20348;-63
2023/03/18 14:21:03;;;;;;;6.63;4.43;;;;;;;;;;4956416;28;20301;-63
2023/03/18 14:23:29;;;;;;;8.98;4.00;;;;;;;;;;4941297;28;20658;-63
2023/03/18 14:26:01;;;;;;;7.55;4.38;;;;;;;;;;4960370;28;20222;-63
2023/03/18 14:28:27;;;;;;;7.93;4.32;;;;;;;;;;4945802;28;20651;-63
2023/03/18 14:30:54;;;;;;;7.18;4.13;;;;;;;;;;4945847;28;20768;-63